sensor_id;sensor_type;location;lat;lon;timestamp;pressure;altitude;pressure_sealevel;temperature;humidity
53715;BME280;39608;55.630;37.864;2023-03-20T00:01:08;99992.13;;;0.73;52.37
53715;BME280;39608;55.630;37.864;2023-03-20T00:06:14;99993.34;;;0.77;52.21
53715;BME280;39608;55.630;37.864;2023-03-20T00:11:26;99998.25;;;0.80;52.35
53715;BME280;39608;55.630;37.864;2023-03-20T00:16:31;100002.44;;;0.69;52.55
53715;BME280;39608;55.630;37.864;2023-03-20T00:21:34;99991.63;;;0.57;52.35
53715;BME280;39608;55.630;37.864;2023-03-20T00:26:37;99983.09;;;0.48;52.58
53715;BME280;39608;55.630;37.864;2023-03-20T00:31:40;99987.63;;;0.48;52.71
53715;BME280;39608;55.630;37.864;2023-03-20T00:36:42;99981.03;;;0.50;52.82
53715;BME280;39608;55.630;37.864;2023-03-20T00:41:49;99978.53;;;0.56;53.14
53715;BME280;39608;55.630;37.864;2023-03-20T00:46:53;99973.84;;;0.51;52.34
53715;BME280;39608;55.630;37.864;2023-03-20T00:51:56;99981.03;;;0.50;52.40
53715;BME280;39608;55.630;37.864;2023-03-20T00:57:02;99956.09;;;0.38;53.06
53715;BME280;39608;55.630;37.864;2023-03-20T01:02:07;99966.63;;;0.51;52.90
53715;BME280;39608;55.630;37.864;2023-03-20T01:07:13;99962.16;;;0.52;52.44
53715;BME280;39608;55.630;37.864;2023-03-20T01:12:17;99963.75;;;0.53;53.24
53715;BME280;39608;55.630;37.864;2023-03-20T01:17:20;99960.50;;;0.51;53.65
53715;BME280;39608;55.630;37.864;2023-03-20T01:22:23;99961.69;;;0.55;53.43
53715;BME280;39608;55.630;37.864;2023-03-20T01:27:26;99961.88;;;0.60;53.09
53715;BME280;39608;55.630;37.864;2023-03-20T01:32:28;99965.34;;;0.61;53.46
53715;BME280;39608;55.630;37.864;2023-03-20T01:37:30;99963.88;;;0.65;53.22
53715;BME280;39608;55.630;37.864;2023-03-20T01:42:34;99947.09;;;0.58;53.45
53715;BME280;39608;55.630;37.864;2023-03-20T01:47:36;99944.09;;;0.47;53.21
53715;BME280;39608;55.630;37.864;2023-03-20T01:52:38;99947.03;;;0.39;53.81
53715;BME280;39608;55.630;37.864;2023-03-20T01:57:42;99943.38;;;0.33;53.98
53715;BME280;39608;55.630;37.864;2023-03-20T02:02:46;99934.47;;;0.21;53.74
53715;BME280;39608;55.630;37.864;2023-03-20T02:07:55;99943.09;;;0.16;54.59
53715;BME280;39608;55.630;37.864;2023-03-20T02:13:02;99924.75;;;0.02;54.24
53715;BME280;39608;55.630;37.864;2023-03-20T02:18:05;99929.25;;;0.01;54.64
53715;BME280;39608;55.630;37.864;2023-03-20T02:23:29;99925.16;;;-0.02;54.78
53715;BME280;39608;55.630;37.864;2023-03-20T02:29:15;99922.47;;;-0.02;54.84
53715;BME280;39608;55.630;37.864;2023-03-20T02:34:54;99928.28;;;-0.11;54.11
53715;BME280;39608;55.630;37.864;2023-03-20T02:40:08;99924.25;;;-0.21;54.45
53715;BME280;39608;55.630;37.864;2023-03-20T02:45:17;99909.53;;;-0.30;54.82
53715;BME280;39608;55.630;37.864;2023-03-20T02:50:30;99911.41;;;-0.37;55.04
53715;BME280;39608;55.630;37.864;2023-03-20T02:55:40;99913.91;;;-0.42;55.09
53715;BME280;39608;55.630;37.864;2023-03-20T03:00:50;99905.38;;;-0.64;55.02
53715;BME280;39608;55.630;37.864;2023-03-20T03:05:58;99904.81;;;-0.73;54.93
53715;BME280;39608;55.630;37.864;2023-03-20T03:11:08;99897.25;;;-0.83;56.41
53715;BME280;39608;55.630;37.864;2023-03-20T03:16:14;99882.94;;;-0.89;56.14
53715;BME280;39608;55.630;37.864;2023-03-20T03:21:17;99893.16;;;-0.86;55.62
53715;BME280;39608;55.630;37.864;2023-03-20T03:26:24;99897.53;;;-0.98;55.94
53715;BME280;39608;55.630;37.864;2023-03-20T03:31:27;99882.19;;;-1.09;55.71
53715;BME280;39608;55.630;37.864;2023-03-20T03:36:37;99886.06;;;-1.05;55.75
53715;BME280;39608;55.630;37.864;2023-03-20T03:41:48;99890.16;;;-1.02;56.39
53715;BME280;39608;55.630;37.864;2023-03-20T03:46:55;99882.75;;;-0.94;56.43
53715;BME280;39608;55.630;37.864;2023-03-20T03:52:00;99870.84;;;-0.78;56.47
53715;BME280;39608;55.630;37.864;2023-03-20T03:57:06;99877.13;;;-0.59;56.22
53715;BME280;39608;55.630;37.864;2023-03-20T04:02:12;99881.53;;;-0.39;55.74
53715;BME280;39608;55.630;37.864;2023-03-20T04:07:14;99860.97;;;-0.32;55.77
53715;BME280;39608;55.630;37.864;2023-03-20T04:12:31;99855.09;;;-0.15;55.70
53715;BME280;39608;55.630;37.864;2023-03-20T04:17:34;99862.00;;;-0.01;54.25
53715;BME280;39608;55.630;37.864;2023-03-20T04:22:36;99863.69;;;-0.07;54.65
53715;BME280;39608;55.630;37.864;2023-03-20T04:27:40;99871.53;;;-0.19;54.45
53715;BME280;39608;55.630;37.864;2023-03-20T04:32:42;99866.38;;;-0.45;55.28
53715;BME280;39608;55.630;37.864;2023-03-20T04:37:44;99865.16;;;-0.49;55.31
53715;BME280;39608;55.630;37.864;2023-03-20T04:42:47;99876.66;;;-0.49;55.33
53715;BME280;39608;55.630;37.864;2023-03-20T04:47:49;99871.94;;;-0.54;55.32
53715;BME280;39608;55.630;37.864;2023-03-20T04:52:51;99862.31;;;-0.55;55.43
53715;BME280;39608;55.630;37.864;2023-03-20T04:57:54;99867.16;;;-0.38;55.29
53715;BME280;39608;55.630;37.864;2023-03-20T05:02:56;99857.25;;;-0.31;55.61
53715;BME280;39608;55.630;37.864;2023-03-20T05:07:59;99875.03;;;-0.18;54.87
53715;BME280;39608;55.630;37.864;2023-03-20T05:13:02;99862.84;;;-0.07;55.25
53715;BME280;39608;55.630;37.864;2023-03-20T05:18:04;99881.88;;;0.03;54.85
53715;BME280;39608;55.630;37.864;2023-03-20T05:23:07;99869.72;;;0.07;54.90
53715;BME280;39608;55.630;37.864;2023-03-20T05:28:10;99883.88;;;0.33;54.84
53715;BME280;39608;55.630;37.864;2023-03-20T05:33:12;99879.16;;;0.35;54.14
53715;BME280;39608;55.630;37.864;2023-03-20T05:38:14;99874.00;;;0.59;54.15
53715;BME280;39608;55.630;37.864;2023-03-20T05:43:17;99872.56;;;1.00;54.21
53715;BME280;39608;55.630;37.864;2023-03-20T05:48:19;99857.44;;;2.86;52.08
53715;BME280;39608;55.630;37.864;2023-03-20T05:53:21;99869.03;;;5.14;48.16
53715;BME280;39608;55.630;37.864;2023-03-20T05:58:25;99859.16;;;6.67;46.19
53715;BME280;39608;55.630;37.864;2023-03-20T06:03:27;99867.19;;;7.78;43.82
53715;BME280;39608;55.630;37.864;2023-03-20T06:08:29;99850.84;;;6.74;44.56
53715;BME280;39608;55.630;37.864;2023-03-20T06:13:32;99879.47;;;6.05;45.16
53715;BME280;39608;55.630;37.864;2023-03-20T06:18:34;99864.41;;;5.54;46.22
53715;BME280;39608;55.630;37.864;2023-03-20T06:23:38;99860.41;;;5.35;46.69
53715;BME280;39608;55.630;37.864;2023-03-20T06:28:42;99858.84;;;5.39;45.89
53715;BME280;39608;55.630;37.864;2023-03-20T06:33:44;99853.84;;;5.47;45.63
53715;BME280;39608;55.630;37.864;2023-03-20T06:38:46;99840.75;;;5.34;45.64
53715;BME280;39608;55.630;37.864;2023-03-20T06:43:49;99851.41;;;5.46;45.34
53715;BME280;39608;55.630;37.864;2023-03-20T06:48:51;99857.84;;;5.45;45.31
53715;BME280;39608;55.630;37.864;2023-03-20T06:53:53;99854.69;;;5.53;45.48
53715;BME280;39608;55.630;37.864;2023-03-20T06:58:59;99846.53;;;5.70;45.08
53715;BME280;39608;55.630;37.864;2023-03-20T07:04:01;99849.63;;;5.84;44.88
53715;BME280;39608;55.630;37.864;2023-03-20T07:09:03;99847.47;;;5.86;44.93
53715;BME280;39608;55.630;37.864;2023-03-20T07:14:07;99844.56;;;5.93;44.41
53715;BME280;39608;55.630;37.864;2023-03-20T07:19:09;99840.22;;;6.14;43.76
53715;BME280;39608;55.630;37.864;2023-03-20T07:24:12;99834.03;;;6.51;43.60
53715;BME280;39608;55.630;37.864;2023-03-20T07:29:16;99840.59;;;6.71;43.42
53715;BME280;39608;55.630;37.864;2023-03-20T07:34:18;99833.91;;;6.78;43.16
53715;BME280;39608;55.630;37.864;2023-03-20T07:39:20;99816.88;;;6.67;42.75
53715;BME280;39608;55.630;37.864;2023-03-20T07:44:23;99830.44;;;6.83;42.32
53715;BME280;39608;55.630;37.864;2023-03-20T07:49:25;99822.13;;;6.95;41.99
53715;BME280;39608;55.630;37.864;2023-03-20T07:54:27;99820.81;;;7.08;41.33
53715;BME280;39608;55.630;37.864;2023-03-20T07:59:31;99818.72;;;7.15;41.03
53715;BME280;39608;55.630;37.864;2023-03-20T08:04:33;99819.72;;;7.03;40.70
53715;BME280;39608;55.630;37.864;2023-03-20T08:09:36;99814.03;;;6.95;41.03
53715;BME280;39608;55.630;37.864;2023-03-20T08:14:40;99819.22;;;7.07;40.28
53715;BME280;39608;55.630;37.864;2023-03-20T08:19:43;99828.50;;;7.52;39.04
53715;BME280;39608;55.630;37.864;2023-03-20T08:24:45;99826.66;;;8.50;37.24
53715;BME280;39608;55.630;37.864;2023-03-20T08:29:48;99821.41;;;8.95;37.14
53715;BME280;39608;55.630;37.864;2023-03-20T08:34:51;99813.13;;;9.31;36.38
53715;BME280;39608;55.630;37.864;2023-03-20T08:39:54;99809.41;;;10.01;34.07
53715;BME280;39608;55.630;37.864;2023-03-20T08:44:58;99799.19;;;10.81;33.62
53715;BME280;39608;55.630;37.864;2023-03-20T08:50:00;99797.59;;;10.80;32.35
53715;BME280;39608;55.630;37.864;2023-03-20T08:55:02;99793.66;;;10.91;32.02
53715;BME280;39608;55.630;37.864;2023-03-20T09:00:09;99787.97;;;10.88;32.16
53715;BME280;39608;55.630;37.864;2023-03-20T09:05:12;99784.75;;;10.32;31.66
53715;BME280;39608;55.630;37.864;2023-03-20T09:10:14;99775.34;;;9.61;31.94
53715;BME280;39608;55.630;37.864;2023-03-20T09:15:17;99768.25;;;9.70;32.52
53715;BME280;39608;55.630;37.864;2023-03-20T09:20:19;99778.34;;;9.93;31.86
53715;BME280;39608;55.630;37.864;2023-03-20T09:25:22;99771.75;;;9.70;32.09
53715;BME280;39608;55.630;37.864;2023-03-20T09:30:25;99762.13;;;10.18;32.21
53715;BME280;39608;55.630;37.864;2023-03-20T09:35:30;99761.63;;;11.12;31.43
53715;BME280;39608;55.630;37.864;2023-03-20T09:40:41;99762.25;;;11.80;31.27
53715;BME280;39608;55.630;37.864;2023-03-20T09:45:57;99755.34;;;11.88;30.70
53715;BME280;39608;55.630;37.864;2023-03-20T09:51:06;99742.25;;;11.57;30.79
53715;BME280;39608;55.630;37.864;2023-03-20T09:56:16;99752.53;;;12.40;30.01
53715;BME280;39608;55.630;37.864;2023-03-20T10:01:23;99747.53;;;13.12;29.12
53715;BME280;39608;55.630;37.864;2023-03-20T10:06:27;99732.00;;;13.26;28.25
53715;BME280;39608;55.630;37.864;2023-03-20T10:11:42;99726.38;;;13.09;29.41
53715;BME280;39608;55.630;37.864;2023-03-20T10:17:03;99717.28;;;13.13;29.79
53715;BME280;39608;55.630;37.864;2023-03-20T10:22:25;99719.22;;;13.13;29.76
53715;BME280;39608;55.630;37.864;2023-03-20T10:27:34;99695.28;;;12.87;29.07
53715;BME280;39608;55.630;37.864;2023-03-20T10:32:50;99709.75;;;13.47;28.95
53715;BME280;39608;55.630;37.864;2023-03-20T10:38:05;99691.81;;;14.09;28.53
53715;BME280;39608;55.630;37.864;2023-03-20T10:43:17;99690.47;;;13.66;28.45
53715;BME280;39608;55.630;37.864;2023-03-20T10:48:23;99682.63;;;13.42;28.47
53715;BME280;39608;55.630;37.864;2023-03-20T10:53:33;99677.63;;;12.98;29.21
53715;BME280;39608;55.630;37.864;2023-03-20T10:58:39;99656.47;;;12.81;29.28
53715;BME280;39608;55.630;37.864;2023-03-20T11:03:43;99675.75;;;13.08;29.27
53715;BME280;39608;55.630;37.864;2023-03-20T11:08:48;99662.75;;;13.41;29.35
53715;BME280;39608;55.630;37.864;2023-03-20T11:13:54;99661.25;;;13.89;28.57
53715;BME280;39608;55.630;37.864;2023-03-20T11:19:05;99655.78;;;14.20;28.67
53715;BME280;39608;55.630;37.864;2023-03-20T11:24:23;99636.59;;;14.52;28.74
53715;BME280;39608;55.630;37.864;2023-03-20T11:29:29;99626.09;;;14.94;27.61
53715;BME280;39608;55.630;37.864;2023-03-20T11:34:37;99641.34;;;15.21;27.88
53715;BME280;39608;55.630;37.864;2023-03-20T11:39:52;99621.75;;;15.19;28.54
53715;BME280;39608;55.630;37.864;2023-03-20T11:44:59;99635.72;;;15.27;27.98
53715;BME280;39608;55.630;37.864;2023-03-20T11:50:06;99624.03;;;15.73;27.47
53715;BME280;39608;55.630;37.864;2023-03-20T11:55:23;99629.69;;;16.16;28.03
53715;BME280;39608;55.630;37.864;2023-03-20T12:00:28;99618.28;;;16.14;26.93
53715;BME280;39608;55.630;37.864;2023-03-20T12:05:34;99613.84;;;16.30;27.07
53715;BME280;39608;55.630;37.864;2023-03-20T12:10:41;99603.41;;;15.94;27.12
53715;BME280;39608;55.630;37.864;2023-03-20T12:15:47;99592.56;;;15.59;27.51
53715;BME280;39608;55.630;37.864;2023-03-20T12:21:02;99585.38;;;16.22;27.34
53715;BME280;39608;55.630;37.864;2023-03-20T12:26:10;99583.22;;;16.37;26.73
53715;BME280;39608;55.630;37.864;2023-03-20T12:31:21;99570.94;;;16.43;26.89
53715;BME280;39608;55.630;37.864;2023-03-20T12:36:30;99583.34;;;16.83;26.62
53715;BME280;39608;55.630;37.864;2023-03-20T12:41:39;99562.38;;;16.23;26.74
53715;BME280;39608;55.630;37.864;2023-03-20T12:46:47;99579.03;;;16.10;27.02
53715;BME280;39608;55.630;37.864;2023-03-20T12:52:00;99568.94;;;16.52;26.84
53715;BME280;39608;55.630;37.864;2023-03-20T12:57:11;99555.47;;;16.89;27.98
53715;BME280;39608;55.630;37.864;2023-03-20T13:02:33;99555.78;;;16.67;27.13
53715;BME280;39608;55.630;37.864;2023-03-20T13:07:52;99525.31;;;16.68;26.60
53715;BME280;39608;55.630;37.864;2023-03-20T13:13:05;99549.63;;;16.91;26.68
53715;BME280;39608;55.630;37.864;2023-03-20T13:18:16;99545.88;;;17.17;27.82
53715;BME280;39608;55.630;37.864;2023-03-20T13:23:27;99535.72;;;15.82;27.35
53715;BME280;39608;55.630;37.864;2023-03-20T13:28:35;99514.06;;;15.20;28.03
53715;BME280;39608;55.630;37.864;2023-03-20T13:33:46;99528.97;;;15.32;28.17
53715;BME280;39608;55.630;37.864;2023-03-20T13:38:56;99521.03;;;14.92;28.24
53715;BME280;39608;55.630;37.864;2023-03-20T13:44:02;99523.13;;;14.77;28.22
53715;BME280;39608;55.630;37.864;2023-03-20T13:49:13;99518.97;;;14.62;28.56
53715;BME280;39608;55.630;37.864;2023-03-20T13:54:36;99505.78;;;14.29;29.00
53715;BME280;39608;55.630;37.864;2023-03-20T13:59:45;99491.03;;;13.64;29.45
53715;BME280;39608;55.630;37.864;2023-03-20T14:04:54;99492.78;;;13.20;30.27
53715;BME280;39608;55.630;37.864;2023-03-20T14:15:27;99476.22;;;12.39;31.37
53715;BME280;39608;55.630;37.864;2023-03-20T14:20:34;99474.44;;;11.84;31.98
53715;BME280;39608;55.630;37.864;2023-03-20T14:25:40;99471.41;;;11.58;32.42
53715;BME280;39608;55.630;37.864;2023-03-20T14:30:46;99477.56;;;11.36;33.14
53715;BME280;39608;55.630;37.864;2023-03-20T14:35:50;99470.91;;;10.81;33.95
53715;BME280;39608;55.630;37.864;2023-03-20T14:40:59;99464.78;;;10.42;34.46
53715;BME280;39608;55.630;37.864;2023-03-20T14:46:07;99468.19;;;9.91;35.34
53715;BME280;39608;55.630;37.864;2023-03-20T14:51:23;99463.03;;;9.70;35.43
53715;BME280;39608;55.630;37.864;2023-03-20T14:56:32;99438.88;;;9.31;36.04
53715;BME280;39608;55.630;37.864;2023-03-20T15:01:47;99446.91;;;9.36;36.05
53715;BME280;39608;55.630;37.864;2023-03-20T15:06:57;99445.72;;;9.23;36.67
53715;BME280;39608;55.630;37.864;2023-03-20T15:12:01;99444.78;;;8.79;36.99
53715;BME280;39608;55.630;37.864;2023-03-20T15:17:16;99441.91;;;8.70;37.22
53715;BME280;39608;55.630;37.864;2023-03-20T15:22:19;99446.41;;;8.51;37.38
53715;BME280;39608;55.630;37.864;2023-03-20T15:27:22;99450.41;;;8.14;38.33
53715;BME280;39608;55.630;37.864;2023-03-20T15:32:31;99453.38;;;8.12;38.65
53715;BME280;39608;55.630;37.864;2023-03-20T15:37:34;99454.31;;;7.92;38.55
53715;BME280;39608;55.630;37.864;2023-03-20T15:42:38;99449.50;;;7.84;39.08
53715;BME280;39608;55.630;37.864;2023-03-20T15:47:42;99451.16;;;7.75;39.28
53715;BME280;39608;55.630;37.864;2023-03-20T15:52:46;99451.78;;;7.61;39.92
53715;BME280;39608;55.630;37.864;2023-03-20T15:57:55;99446.66;;;7.60;40.19
53715;BME280;39608;55.630;37.864;2023-03-20T16:03:00;99429.41;;;7.45;40.38
53715;BME280;39608;55.630;37.864;2023-03-20T16:08:17;99449.13;;;7.46;40.42
53715;BME280;39608;55.630;37.864;2023-03-20T16:13:21;99460.25;;;7.24;40.61
53715;BME280;39608;55.630;37.864;2023-03-20T16:18:27;99457.03;;;7.11;41.26
53715;BME280;39608;55.630;37.864;2023-03-20T16:23:36;99453.59;;;6.95;41.17
53715;BME280;39608;55.630;37.864;2023-03-20T16:28:39;99453.03;;;6.88;41.06
53715;BME280;39608;55.630;37.864;2023-03-20T16:33:43;99438.22;;;6.75;41.55
53715;BME280;39608;55.630;37.864;2023-03-20T16:38:54;99446.84;;;6.67;41.56
53715;BME280;39608;55.630;37.864;2023-03-20T16:43:57;99455.22;;;6.55;41.80
53715;BME280;39608;55.630;37.864;2023-03-20T16:54:56;99448.72;;;6.30;42.81
53715;BME280;39608;55.630;37.864;2023-03-20T17:00:03;99431.19;;;6.12;43.81
53715;BME280;39608;55.630;37.864;2023-03-20T17:05:12;99443.06;;;6.11;43.68
53715;BME280;39608;55.630;37.864;2023-03-20T17:10:18;99444.34;;;5.93;44.20
53715;BME280;39608;55.630;37.864;2023-03-20T17:15:22;99435.69;;;5.81;43.65
53715;BME280;39608;55.630;37.864;2023-03-20T17:20:27;99427.56;;;5.65;44.05
53715;BME280;39608;55.630;37.864;2023-03-20T17:25:30;99424.84;;;5.55;43.99
53715;BME280;39608;55.630;37.864;2023-03-20T17:30:32;99412.97;;;5.41;44.28
53715;BME280;39608;55.630;37.864;2023-03-20T17:35:36;99416.44;;;5.41;44.07
53715;BME280;39608;55.630;37.864;2023-03-20T17:40:38;99418.88;;;5.38;44.41
53715;BME280;39608;55.630;37.864;2023-03-20T17:45:40;99409.97;;;5.37;44.31
53715;BME280;39608;55.630;37.864;2023-03-20T17:50:44;99425.34;;;5.47;44.43
53715;BME280;39608;55.630;37.864;2023-03-20T17:55:46;99417.81;;;5.44;44.19
53715;BME280;39608;55.630;37.864;2023-03-20T18:00:49;99414.03;;;5.40;44.73
53715;BME280;39608;55.630;37.864;2023-03-20T18:05:52;99407.53;;;5.36;44.16
53715;BME280;39608;55.630;37.864;2023-03-20T18:10:55;99411.34;;;5.35;44.80
53715;BME280;39608;55.630;37.864;2023-03-20T18:15:58;99404.84;;;5.36;44.94
53715;BME280;39608;55.630;37.864;2023-03-20T18:21:02;99411.59;;;5.38;44.66
53715;BME280;39608;55.630;37.864;2023-03-20T18:26:13;99400.56;;;5.35;44.78
53715;BME280;39608;55.630;37.864;2023-03-20T18:31:18;99409.41;;;5.25;44.91
53715;BME280;39608;55.630;37.864;2023-03-20T18:36:23;99384.88;;;5.16;45.68
53715;BME280;39608;55.630;37.864;2023-03-20T18:41:25;99392.72;;;5.18;45.08
53715;BME280;39608;55.630;37.864;2023-03-20T18:46:27;99385.41;;;5.13;45.71
53715;BME280;39608;55.630;37.864;2023-03-20T18:51:31;99376.56;;;5.18;45.65
53715;BME280;39608;55.630;37.864;2023-03-20T18:56:33;99375.47;;;5.13;45.62
53715;BME280;39608;55.630;37.864;2023-03-20T19:01:37;99374.13;;;5.16;45.79
53715;BME280;39608;55.630;37.864;2023-03-20T19:06:40;99368.50;;;5.23;45.64
53715;BME280;39608;55.630;37.864;2023-03-20T19:11:42;99367.97;;;5.21;45.74
53715;BME280;39608;55.630;37.864;2023-03-20T19:16:50;99366.66;;;5.28;45.57
53715;BME280;39608;55.630;37.864;2023-03-20T19:21:53;99375.81;;;5.27;45.82
53715;BME280;39608;55.630;37.864;2023-03-20T19:26:55;99364.47;;;5.15;45.82
53715;BME280;39608;55.630;37.864;2023-03-20T19:31:57;99360.13;;;5.09;45.96
53715;BME280;39608;55.630;37.864;2023-03-20T19:37:01;99357.16;;;5.05;46.36
53715;BME280;39608;55.630;37.864;2023-03-20T19:42:03;99358.50;;;5.03;46.12
53715;BME280;39608;55.630;37.864;2023-03-20T19:47:07;99353.13;;;5.03;46.31
53715;BME280;39608;55.630;37.864;2023-03-20T19:52:15;99353.69;;;5.10;46.35
53715;BME280;39608;55.630;37.864;2023-03-20T19:57:27;99337.03;;;5.08;45.96
53715;BME280;39608;55.630;37.864;2023-03-20T20:02:29;99320.31;;;4.95;45.97
53715;BME280;39608;55.630;37.864;2023-03-20T20:07:32;99330.28;;;5.05;46.79
53715;BME280;39608;55.630;37.864;2023-03-20T20:12:34;99323.28;;;5.04;47.02
53715;BME280;39608;55.630;37.864;2023-03-20T20:17:38;99316.03;;;5.05;46.19
53715;BME280;39608;55.630;37.864;2023-03-20T20:22:42;99309.59;;;5.06;46.70
53715;BME280;39608;55.630;37.864;2023-03-20T20:27:45;99309.59;;;5.06;46.45
53715;BME280;39608;55.630;37.864;2023-03-20T20:32:48;99308.25;;;5.08;46.79
53715;BME280;39608;55.630;37.864;2023-03-20T20:37:51;99304.50;;;5.14;46.85
53715;BME280;39608;55.630;37.864;2023-03-20T20:42:56;99302.06;;;5.13;46.50
53715;BME280;39608;55.630;37.864;2023-03-20T20:47:58;99298.53;;;5.02;46.99
53715;BME280;39608;55.630;37.864;2023-03-20T20:53:02;99289.16;;;5.00;47.14
53715;BME280;39608;55.630;37.864;2023-03-20T20:58:04;99289.16;;;5.00;46.97
53715;BME280;39608;55.630;37.864;2023-03-20T21:03:06;99274.63;;;5.01;46.83
53715;BME280;39608;55.630;37.864;2023-03-20T21:08:10;99268.75;;;5.04;47.37
53715;BME280;39608;55.630;37.864;2023-03-20T21:13:13;99263.38;;;5.04;47.06
53715;BME280;39608;55.630;37.864;2023-03-20T21:18:15;99254.22;;;5.00;46.81
53715;BME280;39608;55.630;37.864;2023-03-20T21:23:19;99260.13;;;5.02;47.83
53715;BME280;39608;55.630;37.864;2023-03-20T21:28:21;99259.59;;;5.00;47.77
53715;BME280;39608;55.630;37.864;2023-03-20T21:33:23;99260.09;;;4.96;47.76
53715;BME280;39608;55.630;37.864;2023-03-20T21:38:27;99256.06;;;4.94;47.59
53715;BME280;39608;55.630;37.864;2023-03-20T21:43:29;99252.81;;;4.92;48.18
53715;BME280;39608;55.630;37.864;2023-03-20T21:48:31;99243.41;;;4.84;47.49
53715;BME280;39608;55.630;37.864;2023-03-20T21:53:35;99248.25;;;4.87;48.05
53715;BME280;39608;55.630;37.864;2023-03-20T21:58:37;99237.50;;;4.87;48.34
53715;BME280;39608;55.630;37.864;2023-03-20T22:03:39;99238.59;;;4.91;48.26
53715;BME280;39608;55.630;37.864;2023-03-20T22:08:43;99232.97;;;4.93;48.26
53715;BME280;39608;55.630;37.864;2023-03-20T22:13:45;99219.50;;;4.88;47.95
53715;BME280;39608;55.630;37.864;2023-03-20T22:18:47;99209.56;;;4.93;48.43
53715;BME280;39608;55.630;37.864;2023-03-20T22:23:51;99196.66;;;4.90;48.58
53715;BME280;39608;55.630;37.864;2023-03-20T22:28:53;99206.63;;;4.95;48.30
53715;BME280;39608;55.630;37.864;2023-03-20T22:33:57;99211.22;;;5.00;48.72
53715;BME280;39608;55.630;37.864;2023-03-20T22:39:00;99194.25;;;4.99;48.61
53715;BME280;39608;55.630;37.864;2023-03-20T22:44:02;99197.75;;;4.94;48.18
53715;BME280;39608;55.630;37.864;2023-03-20T22:49:05;99190.50;;;4.95;48.51
53715;BME280;39608;55.630;37.864;2023-03-20T22:54:09;99188.06;;;4.93;48.99
53715;BME280;39608;55.630;37.864;2023-03-20T22:59:11;99167.91;;;4.86;48.83
53715;BME280;39608;55.630;37.864;2023-03-20T23:04:13;99171.94;;;4.83;49.42
53715;BME280;39608;55.630;37.864;2023-03-20T23:09:16;99167.66;;;4.87;48.80
53715;BME280;39608;55.630;37.864;2023-03-20T23:14:18;99162.53;;;4.91;49.21
53715;BME280;39608;55.630;37.864;2023-03-20T23:19:20;99167.66;;;4.97;49.25
53715;BME280;39608;55.630;37.864;2023-03-20T23:24:24;99154.75;;;4.94;49.28
53715;BME280;39608;55.630;37.864;2023-03-20T23:29:26;99156.38;;;4.90;49.08
53715;BME280;39608;55.630;37.864;2023-03-20T23:34:28;99150.47;;;4.88;49.25
53715;BME280;39608;55.630;37.864;2023-03-20T23:39:31;99147.25;;;4.91;49.17
53715;BME280;39608;55.630;37.864;2023-03-20T23:44:33;99140.78;;;4.87;49.80
53715;BME280;39608;55.630;37.864;2023-03-20T23:49:35;99132.44;;;4.89;49.34
53715;BME280;39608;55.630;37.864;2023-03-20T23:54:39;99125.75;;;4.91;49.25
53715;BME280;39608;55.630;37.864;2023-03-20T23:59:41;99113.66;;;4.89;49.15
